createdAt,value
2023-03-23T16:02:25.538Z,20.50
2023-03-23T16:07:27.671Z,20.60
2023-03-23T16:12:29.625Z,20.60
2023-03-23T16:17:33.348Z,20.50
2023-03-23T16:22:35.524Z,20.50
2023-03-23T16:27:38.726Z,20.40
2023-03-23T16:37:49.492Z,20.60
2023-03-23T16:42:51.461Z,20.70
2023-03-23T16:47:55.909Z,20.70
2023-03-23T16:52:57.863Z,20.80
2023-03-23T16:58:13.157Z,20.80
2023-03-23T17:03:19.709Z,20.90
2023-03-23T17:08:21.862Z,20.90
2023-03-23T17:13:25.463Z,21.00
2023-03-23T17:18:29.078Z,21.10
2023-03-23T17:23:31.128Z,21.10
2023-03-23T17:28:33.146Z,21.10
2023-03-23T17:33:35.175Z,21.20
2023-03-23T17:38:37.184Z,21.30
2023-03-23T17:43:41.080Z,21.20
2023-03-23T17:48:43.073Z,21.20
2023-03-23T17:53:45.265Z,21.20
2023-03-23T17:58:47.107Z,21.20
2023-03-23T18:03:48.974Z,21.20
2023-03-23T18:08:50.970Z,21.20
2023-03-23T18:13:52.920Z,21.20
2023-03-23T18:18:54.874Z,21.10
2023-03-23T18:23:59.785Z,21.10
2023-03-23T18:29:02.118Z,21.00
2023-03-23T18:34:04.011Z,21.00
2023-03-23T18:39:06.203Z,21.00
2023-03-23T18:44:08.223Z,21.00
2023-03-23T18:49:10.448Z,21.00
2023-03-23T18:54:13.331Z,21.00
2023-03-23T18:59:15.619Z,21.00
2023-03-23T19:04:22.290Z,21.00
2023-03-23T19:09:24.642Z,20.80
2023-03-23T19:14:26.962Z,20.40
2023-03-23T19:19:29.109Z,20.20
2023-03-23T19:24:31.513Z,20.00
2023-03-23T19:29:33.509Z,20.00
2023-03-23T19:34:35.781Z,20.10
2023-03-23T19:39:37.732Z,20.10
2023-03-23T19:44:41.192Z,20.10
2023-03-23T19:49:43.205Z,20.10
2023-03-23T19:54:46.095Z,19.90
2023-03-23T19:59:48.367Z,19.90
2023-03-23T20:04:50.514Z,19.80
2023-03-23T20:09:52.453Z,19.80
2023-03-23T20:14:54.476Z,19.60
2023-03-23T20:19:56.672Z,19.40
2023-03-23T20:25:00.514Z,19.20
2023-03-23T20:30:04.432Z,19.20
2023-03-23T20:35:10.702Z,19.20
2023-03-23T20:40:16.684Z,19.10
2023-03-23T20:45:20.154Z,19.10
2023-03-23T20:50:22.122Z,19.10
2023-03-23T20:55:24.265Z,19.00
2023-03-23T21:00:26.591Z,18.90
2023-03-23T21:05:28.768Z,18.90
2023-03-23T21:10:30.710Z,18.90
2023-03-23T21:15:33.639Z,18.80
2023-03-23T21:20:35.838Z,18.70
2023-03-23T21:25:38.045Z,18.70
2023-03-23T21:30:45.465Z,18.60
2023-03-23T21:35:47.630Z,18.50
2023-03-23T21:40:49.731Z,18.40
2023-03-23T21:45:55.916Z,18.30
2023-03-23T21:51:04.716Z,18.30
2023-03-23T21:56:09.631Z,18.20
2023-03-23T22:01:13.008Z,18.10
2023-03-23T22:06:23.518Z,18.10
2023-03-23T22:11:27.610Z,18.10
2023-03-23T22:16:30.051Z,18.10
2023-03-23T22:21:33.130Z,18.10
2023-03-23T22:26:35.341Z,18.10
2023-03-23T22:31:39.814Z,18.20
2023-03-23T22:36:42.183Z,18.00
2023-03-23T22:41:44.662Z,18.00
2023-03-23T22:46:47.140Z,17.90
2023-03-23T22:51:49.775Z,17.90
2023-03-23T22:56:51.731Z,17.90
2023-03-23T23:01:53.678Z,17.90
2023-03-23T23:07:06.404Z,17.90
2023-03-23T23:12:14.693Z,17.80
2023-03-23T23:17:16.604Z,17.60
2023-03-23T23:22:19.562Z,17.30
2023-03-23T23:27:21.646Z,17.10
2023-03-23T23:32:24.316Z,17.10
2023-03-23T23:37:26.230Z,17.10
2023-03-23T23:42:28.206Z,16.70
2023-03-23T23:47:30.380Z,16.50
2023-03-23T23:52:32.316Z,16.30
2023-03-23T23:57:34.573Z,16.30
